createdAt,value
2024-04-18T00:01:07.273Z,98740.81
2024-04-18T00:03:34.200Z,98737.94
2024-04-18T00:06:01.063Z,98739.25
2024-04-18T00:08:27.809Z,98737.69
2024-04-18T00:10:58.951Z,98742.09
2024-04-18T00:13:46.076Z,98729.97
2024-04-18T00:16:32.819Z,98737.41
2024-04-18T00:19:16.041Z,98739.16
2024-04-18T00:22:04.270Z,98738.84
2024-04-18T00:24:31.561Z,98742.22
2024-04-18T00:26:58.347Z,98742.22
2024-04-18T00:29:38.176Z,98732.13
2024-04-18T00:32:20.030Z,98738.47
2024-04-18T00:35:05.900Z,98749.16
2024-04-18T00:37:35.754Z,98754.22
2024-04-18T00:40:02.586Z,98751.81
2024-04-18T00:42:39.802Z,98756.88
2024-04-18T00:45:07.847Z,98754.31
2024-04-18T00:47:48.149Z,98751.34
2024-04-18T00:50:17.300Z,98760.34
2024-04-18T00:52:45.141Z,98752.84
2024-04-18T00:55:31.125Z,98761.28
2024-04-18T00:58:13.604Z,98758.16
2024-04-18T01:00:46.588Z,98761.38
2024-04-18T01:03:32.637Z,98764.19
2024-04-18T01:06:09.191Z,98765.13
2024-04-18T01:08:57.456Z,98775.75
2024-04-18T01:11:31.324Z,98773.41
2024-04-18T01:13:59.930Z,98776.53
2024-04-18T01:16:29.577Z,98780.44
2024-04-18T01:18:56.354Z,98775.28
2024-04-18T01:21:23.389Z,98773.41
2024-04-18T01:23:50.157Z,98783.94
2024-04-18T01:26:19.378Z,98784.50
2024-04-18T01:28:46.163Z,98778.25
2024-04-18T01:31:31.897Z,98790.75
2024-04-18T01:33:58.868Z,98784.88
2024-04-18T01:36:26.154Z,98786.75
2024-04-18T01:38:53.534Z,98791.75
2024-04-18T01:41:32.777Z,98790.44
2024-04-18T01:44:00.170Z,98786.06
2024-04-18T01:46:45.668Z,98798.41
2024-04-18T01:49:30.010Z,98802.78
2024-04-18T01:51:56.835Z,98803.94
2024-04-18T01:54:33.560Z,98805.28
2024-04-18T01:57:00.982Z,98811.75
2024-04-18T01:59:47.727Z,98814.34
2024-04-18T02:02:14.818Z,98812.00
2024-04-18T02:05:02.007Z,98819.09
2024-04-18T02:07:44.330Z,98814.19
2024-04-18T02:10:11.292Z,98805.66
2024-04-18T02:12:59.531Z,98812.28
2024-04-18T02:15:44.720Z,98808.84
2024-04-18T02:18:14.594Z,98807.88
2024-04-18T02:20:44.038Z,98807.47
2024-04-18T02:23:23.424Z,98805.81
2024-04-18T02:25:51.403Z,98804.91
2024-04-18T02:28:18.149Z,98808.50
2024-04-18T02:30:45.002Z,98811.88
2024-04-18T02:33:15.902Z,98815.34
2024-04-18T02:35:49.131Z,98820.94
2024-04-18T02:38:35.613Z,98822.50
2024-04-18T02:41:06.400Z,98823.19
2024-04-18T02:43:52.662Z,98832.13
2024-04-18T02:46:19.705Z,98828.31
2024-04-18T02:49:05.325Z,98831.25
2024-04-18T02:51:32.216Z,98840.88
2024-04-18T02:54:14.938Z,98832.34
2024-04-18T02:56:42.370Z,98829.09
2024-04-18T02:59:11.499Z,98830.75
2024-04-18T03:01:53.232Z,98833.19
2024-04-18T03:04:20.260Z,98837.97
2024-04-18T03:06:47.478Z,98834.13
2024-04-18T03:09:15.509Z,98834.91
2024-04-18T03:11:54.884Z,98827.09
2024-04-18T03:14:43.635Z,98831.06
2024-04-18T03:17:10.755Z,98833.09
2024-04-18T03:19:56.176Z,98841.06
2024-04-18T03:22:26.080Z,98838.16
2024-04-18T03:24:59.678Z,98839.63
2024-04-18T03:27:32.562Z,98836.03
2024-04-18T03:29:59.376Z,98837.84
2024-04-18T03:32:38.598Z,98841.47
2024-04-18T03:35:05.936Z,98852.91
2024-04-18T03:37:38.567Z,98851.09
2024-04-18T03:40:25.193Z,98851.78
2024-04-18T03:43:01.210Z,98857.41
2024-04-18T03:45:28.462Z,98852.56
2024-04-18T03:48:15.214Z,98854.13
2024-04-18T03:50:45.014Z,98852.34
2024-04-18T03:53:21.819Z,98866.22
2024-04-18T03:56:08.820Z,98862.09
2024-04-18T03:58:35.590Z,98863.56
2024-04-18T04:01:02.667Z,98868.94
2024-04-18T04:03:29.600Z,98875.09
2024-04-18T04:05:56.540Z,98868.38
2024-04-18T04:08:23.259Z,98869.94
2024-04-18T04:11:09.969Z,98885.47
2024-04-18T04:13:37.343Z,98889.06
2024-04-18T04:16:16.724Z,98897.56
2024-04-18T04:18:43.644Z,98899.13
2024-04-18T04:21:28.995Z,98899.13
2024-04-18T04:23:56.394Z,98899.81
2024-04-18T04:26:43.536Z,98907.88
2024-04-18T04:29:10.263Z,98913.69
2024-04-18T04:31:37.108Z,98914.16
2024-04-18T04:34:03.873Z,98913.47
2024-04-18T04:36:30.698Z,98920.97
2024-04-18T04:38:57.970Z,98927.22
2024-04-18T04:41:34.645Z,98931.59
2024-04-18T04:44:01.451Z,98930.81
2024-04-18T04:46:47.507Z,98939.97
2024-04-18T04:49:17.737Z,98936.50
2024-04-18T04:52:07.924Z,98946.22
2024-04-18T04:54:43.475Z,98949.28
2024-04-18T04:57:14.872Z,98948.81
2024-04-18T04:59:41.963Z,98956.19
2024-04-18T05:02:08.949Z,98955.28
2024-04-18T05:04:51.736Z,98960.84
2024-04-18T05:07:31.175Z,98962.28
2024-04-18T05:10:17.855Z,98955.53
2024-04-18T05:12:44.698Z,98965.72
2024-04-18T05:15:31.449Z,98957.97
2024-04-18T05:18:01.289Z,98966.84
2024-04-18T05:20:28.109Z,98964.59
2024-04-18T05:22:55.067Z,98976.63
2024-04-18T05:25:21.935Z,98971.47
2024-04-18T05:27:57.164Z,98987.13
2024-04-18T05:30:55.170Z,98979.03
2024-04-18T05:33:22.238Z,98986.16
2024-04-18T05:35:49.133Z,98988.81
2024-04-18T05:38:16.022Z,98997.44
2024-04-18T05:40:42.836Z,98997.16
2024-04-18T05:43:09.576Z,99009.00
2024-04-18T05:45:46.395Z,99005.34
2024-04-18T05:48:13.545Z,99011.00
2024-04-18T05:50:41.122Z,99019.75
2024-04-18T05:53:20.540Z,99020.94
2024-04-18T05:55:53.215Z,99021.63
2024-04-18T05:58:20.000Z,99023.00
2024-04-18T06:00:56.785Z,99031.22
2024-04-18T06:03:24.254Z,99029.88
2024-04-18T06:05:51.371Z,99026.59
2024-04-18T06:08:18.239Z,99030.50
2024-04-18T06:10:45.109Z,99031.81
2024-04-18T06:13:23.874Z,99034.75
2024-04-18T06:15:50.811Z,99034.28
2024-04-18T06:18:18.126Z,99038.91
2024-04-18T06:20:48.820Z,99042.94
2024-04-18T06:23:15.632Z,99047.19
2024-04-18T06:25:42.951Z,99049.88
2024-04-18T06:28:11.943Z,99058.53
2024-04-18T06:30:39.645Z,99061.44
2024-04-18T06:33:11.127Z,99059.44
2024-04-18T06:35:37.960Z,99053.97
2024-04-18T06:38:04.918Z,99065.88
2024-04-18T06:40:31.746Z,99068.00
2024-04-18T06:42:58.628Z,99070.38
2024-04-18T06:45:26.399Z,99078.34
2024-04-18T06:47:53.860Z,99067.00
2024-04-18T06:50:24.051Z,99088.50
2024-04-18T06:52:52.954Z,99088.16
2024-04-18T06:55:19.741Z,99082.84
2024-04-18T06:57:46.554Z,99090.13
2024-04-18T07:00:14.509Z,99091.44
2024-04-18T07:02:41.631Z,99090.84
2024-04-18T07:05:27.546Z,99092.00
2024-04-18T07:08:14.304Z,99098.97
2024-04-18T07:10:41.160Z,99095.19
2024-04-18T07:13:26.357Z,99103.31
2024-04-18T07:15:57.538Z,99116.44
2024-04-18T07:18:43.176Z,99111.31
2024-04-18T07:21:10.067Z,99108.63
2024-04-18T07:23:37.237Z,99111.91
2024-04-18T07:26:04.658Z,99114.50
2024-04-18T07:28:31.871Z,99115.56
2024-04-18T07:30:58.707Z,99122.97
2024-04-18T07:33:26.982Z,99124.16
2024-04-18T07:35:55.062Z,99129.88
2024-04-18T07:38:25.691Z,99131.28
2024-04-18T07:40:52.473Z,99128.16
2024-04-18T07:43:19.361Z,99138.84
2024-04-18T07:45:46.197Z,99143.19
2024-04-18T07:48:13.509Z,99146.16
2024-04-18T07:50:40.941Z,99141.81
2024-04-18T07:53:10.064Z,99144.00
2024-04-18T07:55:37.504Z,99145.47
2024-04-18T07:58:05.185Z,99150.94
2024-04-18T08:00:34.373Z,99149.44
2024-04-18T08:03:04.747Z,99159.09
2024-04-18T08:05:35.235Z,99162.72
2024-04-18T08:08:06.743Z,99162.47
2024-04-18T08:10:45.985Z,99162.41
2024-04-18T08:13:27.661Z,99162.22
2024-04-18T08:18:24.548Z,99168.59
2024-04-18T08:20:51.559Z,99160.72
2024-04-18T08:23:21.535Z,99165.00
2024-04-18T08:25:48.493Z,99161.72
2024-04-18T08:28:16.293Z,99168.97
2024-04-18T08:30:43.168Z,99158.84
2024-04-18T08:33:10.125Z,99156.75
2024-04-18T08:35:37.248Z,99159.38
2024-04-18T08:38:04.173Z,99155.75
2024-04-18T08:40:31.661Z,99160.72
2024-04-18T08:42:58.553Z,99165.63
2024-04-18T08:45:26.945Z,99167.16
2024-04-18T08:47:55.617Z,99161.78
2024-04-18T08:50:24.053Z,99159.19
2024-04-18T08:52:53.145Z,99153.72
2024-04-18T08:55:19.931Z,99157.22
2024-04-18T08:57:53.523Z,99162.34
2024-04-18T09:00:26.710Z,99163.09
2024-04-18T09:02:54.339Z,99159.44
2024-04-18T09:05:21.164Z,99152.75
2024-04-18T09:07:48.062Z,99155.81
2024-04-18T09:10:17.011Z,99164.38
2024-04-18T09:12:43.863Z,99172.56
2024-04-18T09:15:10.666Z,99164.03
2024-04-18T09:17:37.594Z,99170.09
2024-04-18T09:20:04.943Z,99176.91
2024-04-18T09:22:31.803Z,99169.63
2024-04-18T09:24:58.645Z,99178.44
2024-04-18T09:27:25.522Z,99178.34
2024-04-18T09:29:52.259Z,99180.09
2024-04-18T09:32:19.338Z,99179.59
2024-04-18T09:34:51.915Z,99164.50
2024-04-18T09:37:22.406Z,99171.78
2024-04-18T09:39:52.411Z,99173.59
2024-04-18T09:42:50.855Z,99174.53
2024-04-18T09:45:20.639Z,99178.50
2024-04-18T09:47:48.942Z,99178.19
2024-04-18T09:50:16.309Z,99179.09
2024-04-18T09:52:46.391Z,99178.34
2024-04-18T09:55:14.938Z,99173.97
2024-04-18T09:57:45.125Z,99175.75
2024-04-18T10:00:13.209Z,99183.25
2024-04-18T10:02:41.742Z,99180.16
2024-04-18T10:05:09.348Z,99181.41
2024-04-18T10:07:37.418Z,99181.34
2024-04-18T10:10:05.898Z,99189.94
2024-04-18T10:12:33.921Z,99198.06
2024-04-18T10:15:01.519Z,99194.66
2024-04-18T10:17:32.759Z,99192.06
2024-04-18T10:20:03.810Z,99193.31
2024-04-18T10:22:45.161Z,99194.84
2024-04-18T10:25:21.637Z,99187.00
2024-04-18T10:27:48.578Z,99189.31
2024-04-18T10:30:17.584Z,99182.47
2024-04-18T10:32:46.339Z,99188.09
2024-04-18T10:35:15.929Z,99196.63
2024-04-18T10:37:52.494Z,99202.31
2024-04-18T10:40:19.410Z,99191.53
2024-04-18T10:42:46.284Z,99190.03
2024-04-18T10:45:15.637Z,99191.75
2024-04-18T10:47:44.201Z,99204.41
2024-04-18T10:50:11.179Z,99198.28
2024-04-18T10:52:37.944Z,99195.84
2024-04-18T10:55:05.059Z,99194.56
2024-04-18T10:57:32.758Z,99201.38
2024-04-18T10:59:59.729Z,99200.84
2024-04-18T11:02:27.705Z,99201.56
2024-04-18T11:04:55.488Z,99205.81
2024-04-18T11:07:22.353Z,99206.09
2024-04-18T11:09:49.206Z,99207.22
2024-04-18T11:12:16.510Z,99213.47
2024-04-18T11:14:43.464Z,99214.97
2024-04-18T11:17:10.245Z,99219.53
2024-04-18T11:19:37.876Z,99211.06
2024-04-18T11:22:04.985Z,99213.13
2024-04-18T11:24:31.751Z,99221.13
2024-04-18T11:26:58.642Z,99224.84
2024-04-18T11:29:27.953Z,99218.38
2024-04-18T11:32:03.388Z,99225.69
2024-04-18T11:34:30.662Z,99222.56
2024-04-18T11:36:58.308Z,99220.97
2024-04-18T11:39:29.038Z,99221.75
2024-04-18T11:41:55.870Z,99224.84
2024-04-18T11:44:22.715Z,99218.50
2024-04-18T11:46:51.749Z,99224.78
2024-04-18T11:49:18.710Z,99225.63
2024-04-18T11:51:45.517Z,99214.72
2024-04-18T11:54:12.493Z,99217.28
2024-04-18T11:56:39.466Z,99222.41
2024-04-18T11:59:23.691Z,99222.44
2024-04-18T12:01:51.489Z,99217.09
2024-04-18T12:04:21.495Z,99221.72
2024-04-18T12:06:48.459Z,99226.53
2024-04-18T12:09:28.161Z,99223.97
2024-04-18T12:11:59.789Z,99227.25
2024-04-18T12:14:48.275Z,99222.84
2024-04-18T12:17:29.433Z,99223.91
2024-04-18T12:20:23.923Z,99227.75
2024-04-18T12:22:50.797Z,99218.81
2024-04-18T12:25:18.792Z,99220.44
2024-04-18T12:27:46.724Z,99226.56
2024-04-18T12:30:32.287Z,99222.38
2024-04-18T12:33:18.050Z,99228.25
2024-04-18T12:35:45.144Z,99219.28
2024-04-18T12:38:12.002Z,99232.22
2024-04-18T12:40:46.006Z,99227.94
2024-04-18T12:43:13.684Z,99226.22
2024-04-18T12:46:06.394Z,99230.06
2024-04-18T12:48:50.943Z,99221.78
2024-04-18T12:51:18.069Z,99222.25
2024-04-18T12:53:44.972Z,99228.09
2024-04-18T12:56:12.039Z,99236.50
2024-04-18T12:58:42.347Z,99223.59
2024-04-18T13:01:10.310Z,99232.59
2024-04-18T13:03:41.439Z,99225.78
2024-04-18T13:06:28.091Z,99228.78
2024-04-18T13:08:56.661Z,99224.47
2024-04-18T13:11:42.195Z,99223.13
2024-04-18T13:14:09.399Z,99233.13
2024-04-18T13:16:36.417Z,99221.41
2024-04-18T13:19:12.431Z,99225.13
2024-04-18T13:21:40.228Z,99229.47
2024-04-18T13:24:12.269Z,99221.84
2024-04-18T13:26:52.226Z,99226.28
2024-04-18T13:29:20.002Z,99224.13
2024-04-18T13:31:49.643Z,99224.56
2024-04-18T13:34:22.707Z,99225.94
2024-04-18T13:36:49.874Z,99222.53
2024-04-18T13:39:17.035Z,99216.56
2024-04-18T13:42:04.095Z,99222.75
2024-04-18T13:44:51.492Z,99212.88
2024-04-18T13:47:44.342Z,99220.06
2024-04-18T13:50:11.335Z,99229.75
2024-04-18T13:52:38.107Z,99219.91
2024-04-18T13:55:05.724Z,99218.38
2024-04-18T13:57:33.102Z,99216.44
2024-04-18T14:00:19.458Z,99214.19
2024-04-18T14:03:05.869Z,99212.72
2024-04-18T14:05:33.340Z,99215.50
2024-04-18T14:08:04.353Z,99219.16
2024-04-18T14:10:32.460Z,99221.03
2024-04-18T14:13:24.576Z,99208.47
2024-04-18T14:16:13.822Z,99215.22
2024-04-18T14:18:54.151Z,99210.50
2024-04-18T14:21:34.519Z,99225.06
2024-04-18T14:24:02.316Z,99218.50
2024-04-18T14:26:29.883Z,99222.78
2024-04-18T14:29:17.647Z,99218.44
2024-04-18T14:32:03.111Z,99218.53
2024-04-18T14:34:49.017Z,99218.09
2024-04-18T14:37:19.123Z,99217.03
2024-04-18T14:39:47.233Z,99211.03
2024-04-18T14:42:14.733Z,99220.69
2024-04-18T14:44:42.174Z,99213.03
2024-04-18T14:47:17.016Z,99212.56
2024-04-18T14:50:01.179Z,99211.47
2024-04-18T14:52:34.567Z,99218.13
2024-04-18T14:55:23.786Z,99214.09
2024-04-18T14:57:51.329Z,99215.44
2024-04-18T15:00:19.105Z,99209.16
2024-04-18T15:02:47.082Z,99210.19
2024-04-18T15:05:33.620Z,99213.38
2024-04-18T15:08:01.109Z,99201.44
2024-04-18T15:10:47.440Z,99208.59
2024-04-18T15:13:15.251Z,99209.16
2024-04-18T15:15:44.448Z,99210.75
2024-04-18T15:18:14.471Z,99211.75
2024-04-18T15:20:42.211Z,99206.31
2024-04-18T15:23:11.293Z,99207.00
2024-04-18T15:25:38.812Z,99213.91
2024-04-18T15:28:06.847Z,99211.69
2024-04-18T15:30:34.809Z,99219.50
2024-04-18T15:33:21.320Z,99213.84
2024-04-18T15:35:48.859Z,99212.72
2024-04-18T15:38:16.248Z,99221.59
2024-04-18T15:41:02.571Z,99216.72
2024-04-18T15:43:35.360Z,99218.41
2024-04-18T15:46:04.399Z,99228.72
2024-04-18T15:48:31.505Z,99224.97
2024-04-18T15:50:58.793Z,99229.22
2024-04-18T15:53:29.726Z,99227.66
2024-04-18T15:56:06.034Z,99225.13
2024-04-18T15:58:52.769Z,99224.47
2024-04-18T16:01:19.626Z,99229.47
2024-04-18T16:04:06.853Z,99233.66
2024-04-18T16:06:53.715Z,99236.50
2024-04-18T16:09:40.662Z,99230.00
2024-04-18T16:12:22.935Z,99232.88
2024-04-18T16:15:06.168Z,99237.03
2024-04-18T16:17:34.058Z,99237.06
2024-04-18T16:20:10.532Z,99246.13
2024-04-18T16:22:40.642Z,99247.00
2024-04-18T16:25:26.946Z,99246.94
2024-04-18T16:27:53.809Z,99239.47
2024-04-18T16:30:21.146Z,99240.31
2024-04-18T16:32:48.956Z,99235.44
2024-04-18T16:35:16.431Z,99244.63
2024-04-18T16:37:45.561Z,99241.00
2024-04-18T16:40:17.180Z,99240.25
2024-04-18T16:43:00.054Z,99239.78
2024-04-18T16:45:48.143Z,99243.44
2024-04-18T16:48:15.032Z,99240.31
2024-04-18T16:50:41.845Z,99243.72
2024-04-18T16:53:08.571Z,99244.50
2024-04-18T16:55:44.565Z,99246.06
2024-04-18T16:58:15.210Z,99242.19
2024-04-18T17:01:00.072Z,99250.25
2024-04-18T17:03:28.120Z,99245.34
2024-04-18T17:06:05.960Z,99246.91
2024-04-18T17:08:33.578Z,99243.00
2024-04-18T17:11:00.413Z,99249.28
2024-04-18T17:13:52.371Z,99249.59
2024-04-18T17:16:20.202Z,99246.25
2024-04-18T17:18:47.323Z,99247.53
2024-04-18T17:21:14.390Z,99250.13
2024-04-18T17:23:41.288Z,99252.50
2024-04-18T17:26:08.151Z,99252.00
2024-04-18T17:28:35.195Z,99252.28
2024-04-18T17:31:02.171Z,99264.03
2024-04-18T17:33:29.341Z,99250.50
2024-04-18T17:36:00.108Z,99253.09
2024-04-18T17:38:46.248Z,99248.94
2024-04-18T17:41:29.505Z,99253.38
2024-04-18T17:44:15.920Z,99254.19
2024-04-18T17:46:59.573Z,99260.16
2024-04-18T17:49:27.787Z,99265.13
2024-04-18T17:51:55.232Z,99259.91
2024-04-18T17:54:22.873Z,99261.69
2024-04-18T17:56:50.088Z,99261.69
2024-04-18T17:59:17.022Z,99264.00
2024-04-18T18:01:44.655Z,99265.25
2024-04-18T18:04:12.886Z,99263.44
2024-04-18T18:06:40.218Z,99261.34
2024-04-18T18:09:07.030Z,99264.69
2024-04-18T18:11:34.074Z,99269.59
2024-04-18T18:14:01.953Z,99262.03
2024-04-18T18:16:48.696Z,99266.69
2024-04-18T18:19:15.774Z,99263.53
2024-04-18T18:21:56.058Z,99262.91
2024-04-18T18:24:23.076Z,99263.41
2024-04-18T18:26:49.889Z,99261.81
2024-04-18T18:29:18.327Z,99273.19
2024-04-18T18:32:03.721Z,99262.50
2024-04-18T18:34:31.068Z,99266.56
2024-04-18T18:36:57.837Z,99266.53
2024-04-18T18:39:24.925Z,99272.47
2024-04-18T18:41:51.803Z,99282.28
2024-04-18T18:44:19.220Z,99285.59
2024-04-18T18:46:46.052Z,99281.94
2024-04-18T18:49:16.016Z,99275.94
2024-04-18T18:51:44.809Z,99283.97
2024-04-18T18:54:12.928Z,99284.94
2024-04-18T18:56:41.153Z,99283.63
2024-04-18T18:59:26.939Z,99286.19
2024-04-18T19:01:53.760Z,99279.38
2024-04-18T19:04:21.536Z,99278.81
2024-04-18T19:06:48.467Z,99278.19
2024-04-18T19:09:15.301Z,99279.22
2024-04-18T19:11:42.274Z,99274.56
2024-04-18T19:14:09.154Z,99275.84
2024-04-18T19:16:56.005Z,99281.22
2024-04-18T19:19:25.592Z,99278.81
2024-04-18T19:21:52.936Z,99274.06
2024-04-18T19:24:19.755Z,99273.59
2024-04-18T19:27:02.142Z,99259.25
2024-04-18T19:29:39.572Z,99271.06
2024-04-18T19:32:13.315Z,99274.88
2024-04-18T19:34:40.275Z,99265.44
2024-04-18T19:37:07.141Z,99272.13
2024-04-18T19:39:33.961Z,99265.00
2024-04-18T19:42:01.136Z,99263.44
2024-04-18T19:44:28.028Z,99269.88
2024-04-18T19:46:54.871Z,99268.50
2024-04-18T19:49:21.716Z,99266.94
2024-04-18T19:51:56.526Z,99260.78
2024-04-18T19:54:23.447Z,99269.03
2024-04-18T19:56:50.292Z,99276.31
2024-04-18T19:59:17.144Z,99269.81
2024-04-18T20:01:44.051Z,99267.41
2024-04-18T20:04:10.948Z,99262.16
2024-04-18T20:06:39.504Z,99262.09
2024-04-18T20:09:06.573Z,99269.56
2024-04-18T20:11:33.460Z,99264.63
2024-04-18T20:14:00.260Z,99270.25
2024-04-18T20:16:27.046Z,99268.13
2024-04-18T20:19:15.874Z,99265.78
2024-04-18T20:21:44.343Z,99260.53
2024-04-18T20:24:12.528Z,99263.00
2024-04-18T20:26:58.344Z,99260.56
2024-04-18T20:29:43.652Z,99268.25
2024-04-18T20:32:26.968Z,99258.16
2024-04-18T20:34:55.240Z,99264.09
2024-04-18T20:37:23.423Z,99269.75
2024-04-18T20:39:51.611Z,99269.50
2024-04-18T20:42:19.867Z,99263.00
2024-04-18T20:44:59.826Z,99262.47
2024-04-18T20:47:27.121Z,99264.03
2024-04-18T20:49:53.904Z,99258.38
2024-04-18T20:52:20.843Z,99256.41
2024-04-18T20:54:47.687Z,99254.75
2024-04-18T20:57:14.557Z,99257.00
2024-04-18T20:59:41.552Z,99257.22
2024-04-18T21:02:08.747Z,99252.97
2024-04-18T21:04:35.566Z,99254.09
2024-04-18T21:07:02.396Z,99255.72
2024-04-18T21:09:29.178Z,99253.16
2024-04-18T21:11:56.063Z,99249.53
2024-04-18T21:14:22.803Z,99254.09
2024-04-18T21:16:49.619Z,99251.91
2024-04-18T21:19:20.777Z,99250.66
2024-04-18T21:21:48.575Z,99249.97
2024-04-18T21:24:15.544Z,99246.09
2024-04-18T21:26:49.940Z,99237.34
2024-04-18T21:29:17.103Z,99241.31
2024-04-18T21:31:44.133Z,99240.75
2024-04-18T21:34:14.217Z,99242.88
2024-04-18T21:36:41.255Z,99243.66
2024-04-18T21:39:08.246Z,99243.34
2024-04-18T21:41:39.371Z,99241.31
2024-04-18T21:44:06.442Z,99235.91
2024-04-18T21:46:33.445Z,99246.25
2024-04-18T21:49:00.388Z,99238.19
2024-04-18T21:51:27.414Z,99242.38
2024-04-18T21:53:54.427Z,99239.38
2024-04-18T21:56:21.166Z,99240.97
2024-04-18T21:58:52.314Z,99251.00
2024-04-18T22:01:37.914Z,99244.81
2024-04-18T22:04:04.997Z,99243.28
2024-04-18T22:06:32.120Z,99242.53
2024-04-18T22:08:58.929Z,99246.50
2024-04-18T22:11:26.158Z,99245.75
2024-04-18T22:13:53.072Z,99237.75
2024-04-18T22:16:19.842Z,99236.00
2024-04-18T22:18:46.702Z,99233.44
2024-04-18T22:21:13.533Z,99227.78
2024-04-18T22:23:40.397Z,99229.06
2024-04-18T22:26:07.201Z,99221.53
2024-04-18T22:28:33.970Z,99221.53
2024-04-18T22:31:01.618Z,99210.31
2024-04-18T22:33:28.683Z,99210.81
2024-04-18T22:35:55.910Z,99214.44
2024-04-18T22:38:22.813Z,99206.66
2024-04-18T22:40:49.888Z,99198.88
2024-04-18T22:43:16.728Z,99193.16
2024-04-18T22:45:43.752Z,99195.25
2024-04-18T22:48:10.912Z,99207.25
2024-04-18T22:50:37.938Z,99197.88
2024-04-18T22:53:04.937Z,99194.19
2024-04-18T22:55:31.689Z,99193.38
2024-04-18T22:58:01.984Z,99194.66
2024-04-18T23:00:30.564Z,99193.59
2024-04-18T23:02:57.529Z,99193.28
2024-04-18T23:05:36.842Z,99194.06
2024-04-18T23:08:04.190Z,99200.94
2024-04-18T23:10:33.141Z,99204.03
2024-04-18T23:13:00.411Z,99212.84
2024-04-18T23:15:45.615Z,99203.41
2024-04-18T23:18:12.682Z,99202.88
2024-04-18T23:20:39.821Z,99197.69
2024-04-18T23:23:06.702Z,99203.66
2024-04-18T23:25:33.546Z,99208.84
2024-04-18T23:28:00.296Z,99196.91
2024-04-18T23:30:27.158Z,99199.78
2024-04-18T23:32:54.027Z,99201.63
2024-04-18T23:35:20.934Z,99203.69
2024-04-18T23:37:47.752Z,99196.75
2024-04-18T23:40:14.552Z,99191.75
2024-04-18T23:42:41.550Z,99194.31
2024-04-18T23:45:08.994Z,99182.31
2024-04-18T23:47:35.970Z,99173.31
2024-04-18T23:50:03.364Z,99173.63
2024-04-18T23:52:30.186Z,99165.53
2024-04-18T23:54:57.211Z,99161.94
2024-04-18T23:57:25.733Z,99151.72
2024-04-18T23:59:52.610Z,99156.13
